Time;durP1;ratioP1;P1;durP2;ratioP2;P2;SDS_P1;SDS_P2;PMS_P1;PMS_P2;Temp;Humidity;BMP_temperature;BMP_pressure;BME280_temperature;BME280_humidity;BME280_pressure;Samples;Min_cycle;Max_cycle;Signal;HPM_P1;HPM_P2
2023/03/22 00:00:51;;;;;;;15.80;10.35;;;11.90;96.40;;;;;;5077266;28;20177;-85
2023/03/22 00:03:17;;;;;;;19.75;12.45;;;11.80;96.80;;;;;;5079610;28;20193;-87
2023/03/22 00:05:43;;;;;;;14.55;11.07;;;11.80;96.70;;;;;;5076409;28;20181;-84
2023/03/22 00:08:09;;;;;;;14.02;10.05;;;11.80;96.90;;;;;;5077028;28;20288;-89
2023/03/22 00:10:37;;;;;;;13.10;10.88;;;11.80;97.00;;;;;;5080407;28;20346;-89
2023/03/22 00:13:04;;;;;;;14.85;10.65;;;11.70;97.10;;;;;;5076518;28;20254;-84
2023/03/22 00:15:30;;;;;;;13.48;10.63;;;11.70;97.20;;;;;;5075444;28;20264;-84
2023/03/22 00:17:57;;;;;;;15.30;11.90;;;11.60;97.20;;;;;;5075328;28;20637;-87
2023/03/22 00:20:29;;;;;;;15.73;10.73;;;11.60;97.40;;;;;;5075641;28;20513;-85
2023/03/22 00:22:56;;;;;;;11.65;9.68;;;11.50;97.60;;;;;;5076664;28;20193;-85
2023/03/22 00:25:21;;;;;;;14.05;10.55;;;11.50;97.70;;;;;;5076645;28;20184;-86
2023/03/22 00:27:47;;;;;;;14.30;11.80;;;11.50;97.90;;;;;;5076588;28;20539;-89
2023/03/22 00:30:14;;;;;;;18.27;12.00;;;11.40;98.00;;;;;;5075522;28;20204;-89
2023/03/22 00:32:43;;;;;;;17.05;12.10;;;11.40;98.10;;;;;;5076457;28;20444;-83
2023/03/22 00:35:10;;;;;;;16.80;13.10;;;11.40;98.30;;;;;;5076587;28;20169;-89
2023/03/22 00:37:40;;;;;;;14.18;11.75;;;11.30;98.40;;;;;;5076331;28;20263;-90
2023/03/22 00:40:08;;;;;;;13.93;11.52;;;11.30;98.50;;;;;;5076487;28;20165;-85
2023/03/22 00:42:38;;;;;;;14.57;11.43;;;11.30;98.80;;;;;;5075105;28;20623;-84
2023/03/22 00:45:06;;;;;;;17.17;12.25;;;11.20;98.90;;;;;;5076309;28;20178;-85
2023/03/22 00:47:32;;;;;;;14.70;10.57;;;11.20;99.10;;;;;;5074902;28;20200;-89
2023/03/22 00:49:58;;;;;;;16.20;12.43;;;11.10;99.20;;;;;;5076212;28;20630;-84
2023/03/22 00:52:24;;;;;;;15.47;12.23;;;11.10;99.40;;;;;;5074804;28;20850;-83
2023/03/22 00:54:50;;;;;;;16.23;12.25;;;11.00;99.60;;;;;;5075050;28;20933;-88
2023/03/22 00:57:16;;;;;;;14.53;11.93;;;11.00;99.80;;;;;;5075943;28;20230;-89
2023/03/22 00:59:42;;;;;;;17.10;12.25;;;11.00;99.90;;;;;;5074838;28;20176;-89
2023/03/22 01:02:12;;;;;;;15.75;12.40;;;11.00;99.90;;;;;;5076444;28;20251;-84
2023/03/22 01:04:38;;;;;;;16.15;12.68;;;11.00;99.90;;;;;;5074687;28;20184;-89
2023/03/22 01:07:06;;;;;;;16.00;13.13;;;11.00;99.90;;;;;;5074389;28;20204;-85
2023/03/22 01:09:32;;;;;;;16.13;13.30;;;10.90;99.90;;;;;;5080608;28;20195;-89
2023/03/22 01:12:00;;;;;;;15.85;13.18;;;11.00;99.90;;;;;;5081935;28;20227;-84
2023/03/22 01:14:26;;;;;;;20.55;14.38;;;11.00;99.90;;;;;;5074539;28;20181;-88
2023/03/22 01:16:56;;;;;;;16.42;13.07;;;11.10;99.90;;;;;;5074508;28;20657;-84
2023/03/22 01:19:23;;;;;;;18.30;12.88;;;11.00;99.90;;;;;;5074230;28;20254;-89
2023/03/22 01:21:49;;;;;;;21.17;14.07;;;11.00;99.90;;;;;;5076081;28;20175;-85
2023/03/22 01:24:15;;;;;;;21.05;14.77;;;11.00;99.90;;;;;;5074169;28;20183;-85
2023/03/22 01:26:42;;;;;;;18.47;14.57;;;11.00;99.90;;;;;;5074284;28;20177;-87
2023/03/22 01:29:08;;;;;;;22.60;15.27;;;11.00;99.90;;;;;;5074328;28;20966;-89
2023/03/22 01:31:34;;;;;;;19.80;15.03;;;11.00;99.90;;;;;;5074154;28;20279;-83
2023/03/22 01:34:00;;;;;;;19.90;15.30;;;10.90;99.90;;;;;;5074244;28;20911;-88
2023/03/22 01:36:25;;;;;;;20.17;16.23;;;10.90;99.90;;;;;;5075743;28;20399;-89
2023/03/22 01:38:51;;;;;;;19.40;14.63;;;10.90;99.90;;;;;;5073793;28;20982;-84
2023/03/22 01:41:17;;;;;;;20.03;15.10;;;10.80;99.90;;;;;;5074093;28;20189;-89
2023/03/22 01:43:43;;;;;;;18.60;15.00;;;10.80;99.90;;;;;;5075032;28;20185;-84
2023/03/22 01:46:09;;;;;;;19.27;15.20;;;10.80;99.90;;;;;;5075368;28;20173;-84
2023/03/22 01:48:45;;;;;;;26.77;16.07;;;10.70;99.90;;;;;;5075111;28;20422;-89
2023/03/22 01:51:23;;;;;;;19.73;15.00;;;10.70;99.90;;;;;;5076175;28;20185;-89
2023/03/22 01:53:54;;;;;;;18.50;14.60;;;10.60;99.90;;;;;;5075505;28;20669;-85
2023/03/22 01:56:24;;;;;;;20.42;15.40;;;10.50;99.90;;;;;;5075312;28;20177;-84
2023/03/22 01:58:53;;;;;;;20.85;14.88;;;10.50;99.90;;;;;;5074702;28;20213;-84
2023/03/22 02:01:19;;;;;;;20.67;15.75;;;10.50;99.90;;;;;;5073700;28;20177;-85
2023/03/22 02:03:56;;;;;;;20.55;16.02;;;10.50;99.90;;;;;;5073601;28;20716;-84
2023/03/22 02:06:23;;;;;;;24.50;15.90;;;10.50;99.90;;;;;;5073338;28;20180;-84
2023/03/22 02:08:51;;;;;;;21.00;15.27;;;10.50;99.90;;;;;;5073442;28;20568;-89
2023/03/22 02:11:29;;;;;;;23.48;16.95;;;10.50;99.90;;;;;;5073397;28;20184;-84
2023/03/22 02:14:26;;;;;;;21.30;15.45;;;10.50;99.90;;;;;;5073550;28;20197;-84
2023/03/22 02:17:08;;;;;;;23.20;17.52;;;10.40;99.90;;;;;;5073165;28;20264;-84
2023/03/22 02:19:45;;;;;;;25.70;16.70;;;10.40;99.90;;;;;;5073772;28;20201;-84
2023/03/22 02:22:39;;;;;;;20.52;15.82;;;10.30;99.90;;;;;;5074811;28;20284;-88
2023/03/22 02:25:22;;;;;;;21.50;16.33;;;10.30;99.90;;;;;;5073216;28;20204;-84
2023/03/22 02:28:09;;;;;;;24.98;16.05;;;10.30;99.90;;;;;;5073079;28;20746;-84
2023/03/22 02:30:44;;;;;;;19.38;15.90;;;10.30;99.90;;;;;;5074499;28;20192;-90
2023/03/22 02:33:28;;;;;;;23.77;16.65;;;10.30;99.90;;;;;;5073102;28;20701;-89
2023/03/22 02:36:24;;;;;;;24.38;17.48;;;10.20;99.90;;;;;;5076619;28;20260;-91
2023/03/22 02:39:12;;;;;;;24.02;17.40;;;10.20;99.90;;;;;;5079161;28;20278;-89
2023/03/22 02:41:55;;;;;;;23.17;16.98;;;10.20;99.90;;;;;;5072727;28;20173;-89
2023/03/22 02:44:39;;;;;;;22.08;16.42;;;10.10;99.90;;;;;;5074140;28;20211;-84
2023/03/22 02:47:37;;;;;;;19.25;15.57;;;10.10;99.90;;;;;;5073900;28;20246;-90
2023/03/22 02:50:14;;;;;;;23.77;16.42;;;10.10;99.90;;;;;;5073994;28;20315;-89
2023/03/22 02:53:07;;;;;;;23.67;16.65;;;10.00;99.90;;;;;;5073053;28;20692;-90
2023/03/22 02:55:42;;;;;;;23.45;18.48;;;10.00;99.90;;;;;;5076181;28;20185;-83
2023/03/22 02:58:34;;;;;;;23.45;17.85;;;9.90;99.90;;;;;;5073977;28;20200;-89
2023/03/22 03:01:09;;;;;;;26.20;18.33;;;9.90;99.90;;;;;;5074095;28;20219;-89
2023/03/22 03:03:38;;;;;;;25.90;18.90;;;9.80;99.90;;;;;;5072660;28;20677;-88
2023/03/22 03:06:15;;;;;;;23.58;18.63;;;9.80;99.90;;;;;;5072958;28;20322;-90
2023/03/22 03:08:43;;;;;;;26.05;18.88;;;9.80;99.90;;;;;;5073889;28;20200;-84
2023/03/22 03:11:09;;;;;;;23.80;18.05;;;9.80;99.90;;;;;;5073885;28;20541;-89
2023/03/22 03:13:34;;;;;;;24.52;16.98;;;9.70;99.90;;;;;;5074693;28;20201;-89
2023/03/22 03:16:04;;;;;;;25.47;19.37;;;9.70;99.90;;;;;;5074827;28;20576;-84
2023/03/22 03:18:49;;;;;;;25.25;19.60;;;9.70;99.90;;;;;;5072722;28;20212;-84
2023/03/22 03:21:18;;;;;;;27.98;18.70;;;9.70;99.90;;;;;;5073972;28;20553;-84
2023/03/22 03:23:59;;;;;;;28.85;19.80;;;9.70;99.90;;;;;;5073644;28;20197;-84
2023/03/22 03:26:53;;;;;;;27.13;19.63;;;9.60;99.90;;;;;;5074079;28;20169;-84
2023/03/22 03:29:39;;;;;;;25.80;19.48;;;9.60;99.90;;;;;;5073330;28;20188;-89
2023/03/22 03:32:11;;;;;;;25.92;19.20;;;9.60;99.90;;;;;;5077697;28;20678;-84
2023/03/22 03:34:48;;;;;;;28.30;19.77;;;9.60;99.90;;;;;;5076320;28;20173;-84
2023/03/22 03:37:20;;;;;;;26.27;19.50;;;9.60;99.90;;;;;;5076378;28;20211;-89
2023/03/22 03:40:08;;;;;;;25.08;18.13;;;9.60;99.90;;;;;;5077642;28;20682;-84
2023/03/22 03:42:36;;;;;;;27.40;20.25;;;9.60;99.90;;;;;;5076249;28;20295;-83
2023/03/22 03:45:03;;;;;;;26.90;18.80;;;9.60;99.90;;;;;;5077428;28;20180;-89
2023/03/22 03:47:30;;;;;;;30.65;19.38;;;9.60;99.90;;;;;;5076217;28;20204;-84
2023/03/22 03:49:56;;;;;;;26.92;18.77;;;9.60;99.90;;;;;;5080746;28;20183;-85
2023/03/22 03:52:23;;;;;;;25.92;18.35;;;9.60;99.90;;;;;;5082500;28;20223;-89
2023/03/22 03:54:49;;;;;;;23.83;18.63;;;9.60;99.90;;;;;;5080484;28;20241;-85
2023/03/22 03:57:15;;;;;;;27.08;18.65;;;9.50;99.90;;;;;;5077254;28;20209;-84
2023/03/22 03:59:41;;;;;;;27.57;19.73;;;9.50;99.90;;;;;;5075829;28;20208;-84
2023/03/22 04:02:06;;;;;;;29.00;20.10;;;9.40;99.90;;;;;;5077469;28;20201;-85
2023/03/22 04:04:33;;;;;;;23.40;18.37;;;9.40;99.90;;;;;;5077101;28;20432;-87
2023/03/22 04:07:00;;;;;;;28.55;18.75;;;9.60;99.90;;;;;;5077623;28;20711;-85
2023/03/22 04:09:33;;;;;;;29.42;18.67;;;9.80;99.90;;;;;;5075997;28;20650;-88
2023/03/22 04:11:59;;;;;;;27.83;18.65;;;9.90;99.90;;;;;;5076001;28;20203;-89
2023/03/22 04:14:26;;;;;;;25.40;17.85;;;10.10;99.90;;;;;;5075578;28;20556;-88
2023/03/22 04:16:52;;;;;;;24.10;18.73;;;10.20;99.90;;;;;;5075641;28;20244;-88
2023/03/22 04:19:18;;;;;;;26.45;19.23;;;10.30;99.90;;;;;;5075504;28;20682;-88
2023/03/22 04:21:44;;;;;;;31.05;20.20;;;10.40;99.90;;;;;;5077009;28;20189;-84
2023/03/22 04:24:11;;;;;;;23.75;17.58;;;10.40;99.90;;;;;;5075594;28;20183;-88
2023/03/22 04:26:37;;;;;;;25.42;17.95;;;10.40;99.90;;;;;;5075576;28;20184;-83
2023/03/22 04:29:03;;;;;;;23.40;17.65;;;10.50;99.90;;;;;;5076805;28;20634;-84
2023/03/22 04:31:30;;;;;;;25.60;18.92;;;10.50;99.90;;;;;;5076510;28;20646;-89
2023/03/22 04:33:56;;;;;;;27.52;18.25;;;10.40;99.90;;;;;;5077035;28;20662;-88
2023/03/22 04:36:23;;;;;;;25.27;18.50;;;10.40;99.90;;;;;;5079111;28;20181;-89
2023/03/22 04:38:50;;;;;;;24.40;18.88;;;10.30;99.90;;;;;;5079785;28;20277;-83
2023/03/22 04:41:16;;;;;;;24.88;18.35;;;10.30;99.90;;;;;;5080112;28;20184;-89
2023/03/22 04:43:45;;;;;;;31.65;19.58;;;10.20;99.90;;;;;;5080577;28;20689;-83
2023/03/22 04:46:12;;;;;;;27.45;19.08;;;10.10;99.90;;;;;;5077003;28;20170;-84
2023/03/22 04:48:40;;;;;;;26.63;19.63;;;10.00;99.90;;;;;;5076420;28;20708;-83
2023/03/22 04:51:08;;;;;;;28.92;19.58;;;10.00;99.90;;;;;;5074900;28;20653;-86
2023/03/22 04:53:38;;;;;;;26.20;19.30;;;9.90;99.90;;;;;;5057924;28;20198;-83
2023/03/22 04:56:06;;;;;;;26.02;19.17;;;9.80;99.90;;;;;;5056431;28;20201;-89
2023/03/22 04:58:33;;;;;;;26.90;18.77;;;9.70;99.90;;;;;;5054785;28;20217;-84
2023/03/22 05:00:59;;;;;;;26.30;18.45;;;9.70;99.90;;;;;;5055194;28;20245;-90
2023/03/22 05:03:27;;;;;;;31.00;20.67;;;9.70;99.90;;;;;;5054932;28;20240;-84
2023/03/22 05:05:58;;;;;;;30.83;20.52;;;9.60;99.90;;;;;;5064336;28;20188;-84
2023/03/22 05:08:25;;;;;;;29.88;19.58;;;9.70;99.90;;;;;;5074800;28;20200;-84
2023/03/22 05:10:56;;;;;;;26.23;20.08;;;9.60;99.90;;;;;;5074442;28;20177;-89
2023/03/22 05:13:24;;;;;;;26.63;19.33;;;9.60;99.90;;;;;;5076005;28;20203;-85
2023/03/22 05:15:50;;;;;;;26.75;19.20;;;9.60;99.90;;;;;;5074285;28;20235;-90
2023/03/22 05:18:19;;;;;;;31.42;20.05;;;9.60;99.90;;;;;;5054366;28;20320;-83
2023/03/22 05:20:46;;;;;;;30.02;20.75;;;9.60;99.90;;;;;;5055325;28;20198;-84
2023/03/22 05:23:17;;;;;;;26.92;19.88;;;9.50;99.90;;;;;;5060981;28;20206;-90
2023/03/22 05:25:45;;;;;;;30.85;19.45;;;9.60;99.90;;;;;;5054505;28;20210;-90
2023/03/22 05:28:13;;;;;;;30.40;19.73;;;9.60;99.90;;;;;;5054429;28;20312;-83
2023/03/22 05:30:40;;;;;;;25.38;18.90;;;9.60;99.90;;;;;;5059575;28;20170;-84
2023/03/22 05:33:06;;;;;;;31.48;19.33;;;9.90;99.90;;;;;;5075465;28;20666;-90
2023/03/22 05:35:34;;;;;;;26.10;18.35;;;10.10;99.90;;;;;;5075642;28;20178;-85
2023/03/22 05:38:00;;;;;;;27.40;19.48;;;10.20;99.90;;;;;;5068492;28;20221;-90
2023/03/22 05:40:26;;;;;;;24.63;19.50;;;10.10;99.90;;;;;;5066508;28;20192;-89
2023/03/22 05:42:52;;;;;;;23.10;17.08;;;10.20;99.90;;;;;;5060406;28;20474;-83
2023/03/22 05:45:19;;;;;;;29.13;18.67;;;10.30;99.90;;;;;;5069037;28;20532;-90
2023/03/22 05:47:46;;;;;;;26.35;17.52;;;10.30;99.90;;;;;;5069792;28;20270;-90
2023/03/22 05:50:17;;;;;;;27.05;17.55;;;10.30;99.90;;;;;;5072159;28;20212;-83
2023/03/22 05:52:43;;;;;;;26.75;18.88;;;10.40;99.90;;;;;;5072195;28;20197;-89
2023/03/22 05:55:13;;;;;;;25.02;19.00;;;10.40;99.90;;;;;;5072084;28;20181;-90
2023/03/22 05:57:40;;;;;;;26.70;18.52;;;10.40;99.90;;;;;;5074205;28;20197;-89
2023/03/22 06:00:12;;;;;;;29.00;19.70;;;10.20;99.90;;;;;;5072280;28;20188;-87
2023/03/22 06:02:39;;;;;;;29.58;21.55;;;10.20;99.90;;;;;;5059657;28;20208;-89
2023/03/22 06:05:06;;;;;;;30.27;20.70;;;10.20;99.90;;;;;;5068264;28;20737;-84
2023/03/22 06:07:32;;;;;;;27.00;19.52;;;10.20;99.90;;;;;;5066963;28;20246;-89
2023/03/22 06:09:57;;;;;;;26.13;18.90;;;10.20;99.90;;;;;;5069195;28;20583;-83
2023/03/22 06:12:24;;;;;;;23.53;17.03;;;10.20;99.90;;;;;;5077120;28;20209;-90
2023/03/22 06:15:00;;;;;;;29.25;17.52;;;10.30;99.90;;;;;;5118426;27;20578;-83
2023/03/22 06:17:26;;;;;;;27.20;18.73;;;10.30;99.90;;;;;;5121093;27;20227;-86
2023/03/22 06:19:53;;;;;;;31.23;17.73;;;10.40;99.90;;;;;;5102856;28;20245;-86
2023/03/22 06:22:19;;;;;;;24.92;18.20;;;10.50;99.90;;;;;;5110372;28;20953;-85
2023/03/22 06:24:45;;;;;;;23.50;17.30;;;10.60;99.90;;;;;;5098799;28;20177;-85
2023/03/22 06:27:12;;;;;;;24.73;16.42;;;10.70;99.90;;;;;;5110867;28;20451;-84
2023/03/22 06:29:38;;;;;;;21.50;16.92;;;10.80;99.90;;;;;;5108951;28;20185;-91
2023/03/22 06:32:04;;;;;;;22.58;17.20;;;10.90;99.90;;;;;;5108269;28;20199;-91
2023/03/22 06:34:30;;;;;;;27.20;18.30;;;11.00;99.90;;;;;;5119918;28;20215;-84
2023/03/22 06:36:55;;;;;;;21.30;16.33;;;11.10;99.90;;;;;;5124434;28;20447;-84
2023/03/22 06:39:22;;;;;;;23.83;18.10;;;11.20;99.90;;;;;;5129060;27;20420;-85
2023/03/22 06:41:48;;;;;;;22.70;17.23;;;11.30;99.90;;;;;;5126829;28;20407;-90
2023/03/22 06:44:14;;;;;;;20.33;16.08;;;11.40;99.90;;;;;;5114666;28;20207;-84
2023/03/22 06:46:40;;;;;;;21.98;17.13;;;11.50;99.90;;;;;;5108705;28;20263;-85
2023/03/22 06:49:06;;;;;;;21.20;16.00;;;11.50;99.90;;;;;;5112563;28;20210;-91
2023/03/22 06:51:33;;;;;;;23.88;17.33;;;11.60;99.90;;;;;;5115112;28;20171;-91
2023/03/22 06:53:59;;;;;;;26.08;18.33;;;11.80;99.90;;;;;;5106499;28;20298;-85
2023/03/22 06:56:25;;;;;;;22.77;17.03;;;11.80;99.90;;;;;;5104556;28;20712;-84
2023/03/22 06:58:53;;;;;;;21.83;16.60;;;12.00;99.90;;;;;;5104896;28;20496;-86
2023/03/22 07:01:19;;;;;;;24.90;17.48;;;12.10;99.90;;;;;;5091602;28;20673;-84
2023/03/22 07:03:45;;;;;;;27.02;17.08;;;12.20;99.90;;;;;;5111513;28;20621;-85
2023/03/22 07:06:11;;;;;;;26.50;17.27;;;12.40;99.90;;;;;;5124484;28;20232;-89
2023/03/22 07:08:37;;;;;;;20.73;14.98;;;12.60;99.90;;;;;;5116585;27;20470;-86
2023/03/22 07:11:05;;;;;;;20.23;14.40;;;12.80;99.90;;;;;;5129134;27;20628;-85
2023/03/22 07:13:30;;;;;;;24.27;15.80;;;12.90;99.90;;;;;;5109144;28;20486;-86
2023/03/22 07:15:58;;;;;;;20.13;14.60;;;13.10;99.90;;;;;;5114022;28;20419;-89
2023/03/22 07:18:24;;;;;;;19.37;13.90;;;13.30;99.90;;;;;;5122947;27;20217;-85
2023/03/22 07:20:50;;;;;;;17.87;13.30;;;13.50;99.90;;;;;;5108341;28;20416;-90
2023/03/22 07:23:16;;;;;;;22.43;14.30;;;13.60;99.90;;;;;;5108392;28;20456;-84
2023/03/22 07:25:43;;;;;;;17.70;13.80;;;13.80;99.90;;;;;;5106187;28;20781;-85
2023/03/22 07:28:10;;;;;;;17.30;13.17;;;13.90;99.90;;;;;;5079494;28;20460;-85
2023/03/22 07:30:36;;;;;;;20.93;15.03;;;14.00;99.90;;;;;;5111939;28;20455;-90
2023/03/22 07:33:03;;;;;;;20.43;13.60;;;14.10;99.90;;;;;;5112379;28;20875;-91
2023/03/22 07:35:29;;;;;;;16.73;13.60;;;14.20;99.90;;;;;;5102282;28;20788;-86
2023/03/22 07:37:55;;;;;;;20.30;13.20;;;14.30;99.90;;;;;;5107079;28;20455;-86
2023/03/22 07:40:22;;;;;;;19.70;13.83;;;14.40;99.90;;;;;;5095110;28;20684;-86
2023/03/22 07:42:49;;;;;;;20.10;13.33;;;14.60;99.90;;;;;;5065020;28;20467;-91
2023/03/22 07:45:15;;;;;;;18.03;12.73;;;14.80;99.90;;;;;;5066367;28;20432;-91
2023/03/22 07:47:41;;;;;;;17.00;12.70;;;14.90;99.90;;;;;;5090460;28;20441;-85
2023/03/22 07:50:10;;;;;;;18.00;13.23;;;15.10;99.90;;;;;;5066068;28;20428;-90
2023/03/22 07:52:36;;;;;;;15.97;11.80;;;15.20;99.90;;;;;;5068513;28;20444;-85
2023/03/22 07:55:02;;;;;;;17.57;12.80;;;15.40;99.90;;;;;;5094373;28;20432;-89
2023/03/22 07:57:27;;;;;;;20.60;14.27;;;15.50;99.90;;;;;;5090856;28;20425;-83
2023/03/22 07:59:53;;;;;;;17.73;12.33;;;15.60;99.90;;;;;;5092534;28;20191;-83
2023/03/22 08:02:19;;;;;;;14.93;11.17;;;15.80;99.90;;;;;;5095948;28;20228;-89
2023/03/22 08:04:45;;;;;;;16.40;12.17;;;15.90;99.90;;;;;;5091056;28;20425;-85
2023/03/22 08:07:10;;;;;;;15.87;10.67;;;16.00;99.90;;;;;;5093996;28;20192;-84
2023/03/22 08:09:37;;;;;;;15.87;12.43;;;16.10;99.90;;;;;;5090639;28;20666;-90
2023/03/22 08:12:03;;;;;;;14.97;11.77;;;16.30;99.90;;;;;;5099058;28;20657;-85
2023/03/22 08:14:28;;;;;;;15.30;11.53;;;16.50;99.90;;;;;;5091270;28;20491;-90
2023/03/22 08:16:54;;;;;;;14.57;12.20;;;16.60;99.90;;;;;;5091866;28;20227;-89
2023/03/22 08:19:20;;;;;;;16.07;11.83;;;16.80;99.90;;;;;;5093269;28;20192;-90
2023/03/22 08:21:45;;;;;;;16.20;11.23;;;16.90;99.90;;;;;;5101811;28;20195;-89
2023/03/22 08:24:11;;;;;;;14.93;11.93;;;17.10;99.90;;;;;;5105736;28;20238;-89
2023/03/22 08:26:38;;;;;;;14.87;11.77;;;17.70;99.90;;;;;;5103766;28;20177;-90
2023/03/22 08:29:04;;;;;;;15.67;11.60;;;18.50;99.90;;;;;;5113909;28;20168;-89
2023/03/22 08:31:30;;;;;;;18.13;10.80;;;19.40;99.90;;;;;;5110371;28;20428;-85
2023/03/22 08:33:57;;;;;;;12.07;9.13;;;20.40;99.90;;;;;;5094308;28;20496;-90
2023/03/22 08:36:22;;;;;;;12.30;10.53;;;21.40;99.90;;;;;;5091470;28;20458;-90
2023/03/22 08:38:49;;;;;;;11.97;9.90;;;22.60;99.90;;;;;;5096146;28;20459;-85
2023/03/22 08:41:15;;;;;;;11.97;9.30;;;23.50;99.60;;;;;;5089164;28;20179;-86
2023/03/22 08:43:41;;;;;;;12.37;9.60;;;24.50;96.70;;;;;;5088216;28;20456;-86
2023/03/22 08:46:07;;;;;;;11.57;9.37;;;25.50;94.30;;;;;;5091551;28;20456;-85
2023/03/22 08:48:36;;;;;;;11.30;10.10;;;26.40;92.60;;;;;;5085171;28;21118;-89
2023/03/22 08:51:04;;;;;;;10.70;9.53;;;27.20;90.80;;;;;;5097113;28;20457;-85
2023/03/22 08:53:30;;;;;;;13.50;11.60;;;28.10;86.90;;;;;;5089077;28;21015;-86
2023/03/22 08:55:56;;;;;;;10.97;9.43;;;28.50;85.20;;;;;;5094155;28;20524;-86
2023/03/22 08:58:23;;;;;;;11.30;9.30;;;29.10;84.00;;;;;;5089676;28;20496;-89
2023/03/22 09:00:49;;;;;;;10.83;9.60;;;29.50;80.40;;;;;;5088995;28;20437;-89
2023/03/22 09:03:15;;;;;;;11.50;10.00;;;30.00;78.10;;;;;;5098013;28;20456;-86
2023/03/22 09:05:41;;;;;;;10.07;8.87;;;29.90;77.00;;;;;;5086916;28;20851;-85
2023/03/22 09:08:08;;;;;;;9.77;8.80;;;29.90;76.20;;;;;;5093434;28;20481;-85
2023/03/22 09:10:36;;;;;;;10.73;8.40;;;29.80;75.70;;;;;;5092409;28;20482;-85
2023/03/22 09:13:02;;;;;;;10.90;9.30;;;29.70;73.80;;;;;;5082785;28;20499;-91
2023/03/22 09:15:28;;;;;;;9.73;8.83;;;29.50;73.10;;;;;;5086334;28;20428;-85
2023/03/22 09:17:54;;;;;;;9.20;8.30;;;29.00;74.20;;;;;;5088156;28;20682;-86
2023/03/22 09:20:24;;;;;;;10.60;8.93;;;28.50;74.00;;;;;;5085092;28;20179;-84
2023/03/22 09:22:50;;;;;;;11.07;9.50;;;28.20;73.60;;;;;;5079846;28;20200;-90
2023/03/22 09:25:16;;;;;;;9.30;8.30;;;28.10;74.80;;;;;;5084827;28;20843;-85
2023/03/22 09:27:42;;;;;;;8.90;7.90;;;28.30;74.10;;;;;;5086751;28;20465;-86
2023/03/22 09:30:10;;;;;;;9.17;8.23;;;28.50;73.60;;;;;;5088074;28;20420;-90
2023/03/22 09:32:36;;;;;;;10.00;8.00;;;28.50;73.40;;;;;;5085318;28;20448;-86
2023/03/22 09:35:02;;;;;;;8.30;7.57;;;28.60;73.70;;;;;;5087519;28;20798;-84
2023/03/22 09:37:29;;;;;;;7.70;7.00;;;29.20;72.70;;;;;;5084978;28;20196;-86
2023/03/22 09:39:56;;;;;;;10.57;9.50;;;29.50;71.90;;;;;;5084560;28;20444;-88
2023/03/22 09:42:31;;;;;;;8.93;8.00;;;29.90;71.00;;;;;;5072233;28;20511;-85
2023/03/22 09:44:58;;;;;;;8.93;8.10;;;30.10;70.30;;;;;;5085653;28;20812;-86
2023/03/22 09:47:34;;;;;;;10.93;9.83;;;30.10;69.50;;;;;;5084819;28;20503;-91
2023/03/22 09:50:18;;;;;;;8.73;7.93;;;29.80;68.40;;;;;;5088824;28;20440;-85
2023/03/22 09:52:44;;;;;;;8.70;7.90;;;29.50;69.30;;;;;;5087188;28;20982;-86
2023/03/22 09:55:36;;;;;;;9.37;8.47;;;29.40;70.40;;;;;;5086194;28;20419;-86
2023/03/22 09:58:22;;;;;;;8.30;7.50;;;29.60;70.10;;;;;;5088870;28;20447;-87
2023/03/22 10:01:01;;;;;;;7.33;6.60;;;29.90;68.80;;;;;;5093396;28;20429;-87
2023/03/22 10:03:56;;;;;;;7.87;7.13;;;30.10;68.80;;;;;;5087257;28;20983;-89
2023/03/22 10:06:25;;;;;;;8.70;7.80;;;30.20;68.20;;;;;;5085544;28;20433;-90
2023/03/22 10:09:02;;;;;;;512.50;335.17;;;30.10;68.80;;;;;;5086054;28;20493;-86
2023/03/22 10:11:28;;;;;;;10.20;9.10;;;29.80;68.70;;;;;;5086884;28;20446;-86
2023/03/22 10:14:07;;;;;;;9.63;8.63;;;29.50;68.80;;;;;;5096326;28;20496;-86
2023/03/22 10:16:34;;;;;;;7.87;7.17;;;29.10;69.40;;;;;;5087958;28;20171;-89
2023/03/22 10:19:26;;;;;;;8.80;7.90;;;28.50;70.10;;;;;;5088709;28;20483;-89
2023/03/22 10:21:55;;;;;;;9.13;8.23;;;27.80;70.30;;;;;;5087463;28;20501;-84
2023/03/22 10:24:43;;;;;;;8.33;7.53;;;27.20;71.00;;;;;;5088753;28;20451;-85
2023/03/22 10:27:17;;;;;;;7.97;7.27;;;26.70;71.60;;;;;;5080893;28;20432;-85
2023/03/22 10:30:05;;;;;;;9.00;8.20;;;26.30;71.60;;;;;;5093379;28;20444;-86
2023/03/22 10:32:41;;;;;;;10.87;9.77;;;25.90;73.20;;;;;;5084268;28;20501;-88
2023/03/22 10:35:13;;;;;;;9.50;8.00;;;25.50;72.90;;;;;;5089045;28;20425;-85
2023/03/22 10:37:40;;;;;;;7.73;7.03;;;25.10;73.30;;;;;;5089798;28;20437;-87
2023/03/22 10:40:09;;;;;;;9.53;8.23;;;24.70;74.50;;;;;;5093163;28;20416;-85
2023/03/22 10:42:38;;;;;;;7.27;6.57;;;24.60;74.20;;;;;;5090284;28;20797;-88
2023/03/22 10:45:08;;;;;;;7.57;6.83;;;24.40;76.40;;;;;;5088326;28;20470;-85
2023/03/22 10:47:40;;;;;;;8.30;7.50;;;24.40;75.60;;;;;;5088216;28;20443;-85
2023/03/22 10:50:15;;;;;;;7.40;6.70;;;24.30;74.60;;;;;;5081893;28;20955;-89
2023/03/22 10:53:07;;;;;;;7.03;5.87;;;24.30;74.70;;;;;;5087679;28;20476;-88
2023/03/22 10:55:40;;;;;;;5.43;5.00;;;24.20;74.50;;;;;;5083529;28;20522;-84
2023/03/22 10:58:17;;;;;;;5.10;4.47;;;24.10;73.90;;;;;;5094243;28;20476;-90
2023/03/22 11:00:52;;;;;;;4.90;4.50;;;24.00;73.00;;;;;;5089946;28;20823;-85
2023/03/22 11:03:36;;;;;;;5.17;4.67;;;23.80;70.70;;;;;;5086892;28;20816;-85
2023/03/22 11:06:11;;;;;;;4.90;4.50;;;23.70;71.30;;;;;;5085452;28;20513;-86
2023/03/22 11:08:49;;;;;;;4.43;4.07;;;23.70;72.60;;;;;;5088761;28;20474;-84
2023/03/22 11:11:37;;;;;;;5.73;5.30;;;23.80;73.10;;;;;;5092397;28;20423;-88
2023/03/22 11:14:12;;;;;;;6.40;5.50;;;23.90;73.60;;;;;;5088180;28;20539;-89
2023/03/22 11:16:57;;;;;;;5.03;4.40;;;23.90;73.60;;;;;;5092505;28;20962;-86
2023/03/22 11:19:26;;;;;;;4.50;4.13;;;24.00;71.60;;;;;;5089087;28;20433;-88
2023/03/22 11:21:54;;;;;;;4.77;3.90;;;23.90;71.30;;;;;;5089810;28;20447;-86
2023/03/22 11:24:23;;;;;;;4.20;3.90;;;23.90;71.70;;;;;;5090527;28;20512;-85
2023/03/22 11:27:10;;;;;;;4.70;4.20;;;23.90;71.20;;;;;;5092309;28;20458;-85
2023/03/22 11:29:41;;;;;;;2.60;2.40;;;23.90;71.40;;;;;;5090202;28;20435;-88
2023/03/22 11:32:24;;;;;;;3.37;2.80;;;23.80;69.10;;;;;;5085385;28;20543;-89
2023/03/22 11:34:59;;;;;;;3.83;3.47;;;23.80;69.00;;;;;;5100348;28;20482;-85
2023/03/22 11:37:25;;;;;;;2.93;2.73;;;23.80;69.40;;;;;;5091061;28;20465;-89
2023/03/22 11:39:57;;;;;;;3.40;3.10;;;23.80;68.60;;;;;;5093826;28;20523;-87
2023/03/22 11:42:24;;;;;;;4.57;3.87;;;23.80;70.00;;;;;;5089006;28;20209;-88
2023/03/22 11:44:54;;;;;;;3.20;2.87;;;23.90;70.70;;;;;;5083179;28;21008;-84
2023/03/22 11:47:19;;;;;;;3.90;3.60;;;23.80;71.10;;;;;;5090931;28;20426;-85
2023/03/22 11:49:49;;;;;;;4.53;3.50;;;23.80;70.60;;;;;;5089640;28;20458;-85
2023/03/22 11:52:18;;;;;;;4.77;3.77;;;23.70;70.00;;;;;;5093221;28;20791;-84
2023/03/22 11:54:46;;;;;;;3.87;3.57;;;23.70;70.50;;;;;;5090545;28;20485;-89
2023/03/22 11:57:26;;;;;;;3.73;3.17;;;23.50;70.00;;;;;;5079183;28;20969;-88
2023/03/22 12:00:20;;;;;;;3.23;2.90;;;23.40;70.60;;;;;;5086900;28;20524;-88
2023/03/22 12:02:57;;;;;;;2.57;2.37;;;23.40;71.10;;;;;;5086821;28;20441;-89
2023/03/22 12:05:36;;;;;;;3.10;2.87;;;23.40;70.60;;;;;;5091880;28;20486;-89
2023/03/22 12:08:18;;;;;;;2.93;2.73;;;23.40;70.80;;;;;;5087042;28;20474;-88
2023/03/22 12:10:51;;;;;;;2.93;2.73;;;23.40;70.80;;;;;;5089383;28;20439;-89
2023/03/22 12:13:36;;;;;;;3.47;3.00;;;23.40;71.60;;;;;;5089850;28;20808;-88
2023/03/22 12:16:05;;;;;;;2.77;2.57;;;23.40;70.20;;;;;;5087954;28;20441;-89
2023/03/22 12:18:33;;;;;;;2.30;2.10;;;23.50;70.20;;;;;;5093153;28;20479;-85
2023/03/22 12:21:01;;;;;;;3.10;2.90;;;23.50;69.60;;;;;;5089647;28;20471;-88
2023/03/22 12:23:29;;;;;;;3.10;2.80;;;23.40;69.60;;;;;;5087717;28;20452;-85
2023/03/22 12:26:15;;;;;;;3.00;2.50;;;23.30;70.50;;;;;;5090857;28;20429;-89
2023/03/22 12:28:56;;;;;;;2.43;1.97;;;23.20;70.00;;;;;;5084829;28;20481;-88
2023/03/22 12:31:57;;;;;;;2.33;2.13;;;23.10;70.60;;;;;;5079766;28;20455;-89
2023/03/22 12:34:31;;;;;;;2.40;2.20;;;23.00;70.70;;;;;;5084935;28;20516;-90
2023/03/22 12:36:58;;;;;;;2.60;2.40;;;22.90;70.60;;;;;;5085426;28;20455;-88
2023/03/22 12:39:36;;;;;;;2.83;2.20;;;22.80;70.60;;;;;;5085634;28;20501;-85
2023/03/22 12:42:13;;;;;;;2.13;1.93;;;22.80;70.40;;;;;;5082660;28;20453;-85
2023/03/22 12:44:42;;;;;;;2.50;2.30;;;22.70;69.70;;;;;;5087100;28;20467;-85
2023/03/22 12:47:33;;;;;;;2.17;2.00;;;22.60;69.80;;;;;;5090085;28;20525;-89
2023/03/22 12:49:59;;;;;;;2.20;2.00;;;22.50;70.30;;;;;;5093735;28;20574;-89